createdAt,value
2018-04-14T00:01:40.141Z,83.44
2018-04-14T00:04:08.285Z,83.93
2018-04-14T00:06:36.425Z,83.58
2018-04-14T00:09:04.549Z,83.35
2018-04-14T00:11:32.785Z,83.07
2018-04-14T00:14:00.925Z,83.54
2018-04-14T00:16:29.069Z,84.24
2018-04-14T00:18:57.216Z,83.87
2018-04-14T00:21:25.362Z,83.89
2018-04-14T00:23:53.494Z,83.98
2018-04-14T00:26:21.848Z,83.99
2018-04-14T00:28:49.983Z,84.10
2018-04-14T00:31:18.118Z,84.05
2018-04-14T00:33:46.272Z,83.87
2018-04-14T00:36:14.444Z,83.83
2018-04-14T00:38:42.606Z,83.71
2018-04-14T00:41:10.752Z,83.77
2018-04-14T00:43:38.896Z,83.62
2018-04-14T00:46:07.007Z,83.92
2018-04-14T00:48:35.130Z,84.04
2018-04-14T00:51:03.274Z,84.14
2018-04-14T00:53:43.280Z,83.95
2018-04-14T00:56:11.397Z,83.74
2018-04-14T00:58:39.552Z,84.70
2018-04-14T01:01:07.701Z,84.44
2018-04-14T01:03:35.854Z,84.13
2018-04-14T01:06:03.996Z,84.25
2018-04-14T01:08:32.381Z,84.53
2018-04-14T01:11:00.525Z,84.39
2018-04-14T01:13:28.639Z,84.27
2018-04-14T01:15:56.817Z,84.28
2018-04-14T01:18:24.931Z,84.08
2018-04-14T01:20:53.056Z,84.15
2018-04-14T01:23:21.218Z,84.46
2018-04-14T01:25:49.341Z,84.82
2018-04-14T01:28:17.463Z,84.55
2018-04-14T01:30:45.732Z,84.55
2018-04-14T01:33:13.847Z,84.56
2018-04-14T01:35:41.981Z,84.76
2018-04-14T01:38:10.146Z,85.02
2018-04-14T01:40:38.276Z,85.22
2018-04-14T01:43:06.437Z,84.93
2018-04-14T01:45:34.570Z,84.91
2018-04-14T01:48:02.803Z,84.78
2018-04-14T01:50:30.929Z,84.72
2018-04-14T01:52:59.081Z,84.91
2018-04-14T01:55:27.197Z,85.00
2018-04-14T01:57:55.338Z,85.10
2018-04-14T02:00:23.499Z,85.18
2018-04-14T02:02:51.622Z,85.08
2018-04-14T02:05:19.782Z,85.23
2018-04-14T02:07:47.908Z,84.83
2018-04-14T02:10:16.052Z,85.00
2018-04-14T02:12:44.178Z,84.89
2018-04-14T02:15:12.325Z,84.82
2018-04-14T02:17:40.614Z,85.00
2018-04-14T02:20:08.724Z,86.19
2018-04-14T02:22:36.888Z,86.02
2018-04-14T02:25:04.998Z,85.72
2018-04-14T02:27:33.138Z,85.31
2018-04-14T02:30:01.283Z,85.19
2018-04-14T02:32:29.424Z,85.21
2018-04-14T02:34:57.542Z,85.10
2018-04-14T02:37:25.682Z,85.11
2018-04-14T02:39:53.803Z,85.09
2018-04-14T02:42:25.696Z,85.13
2018-04-14T02:44:54.048Z,85.23
2018-04-14T02:47:22.223Z,85.19
2018-04-14T02:49:50.337Z,85.31
2018-04-14T02:52:18.506Z,85.53
2018-04-14T02:54:46.633Z,85.63
2018-04-14T02:57:14.782Z,85.37
2018-04-14T02:59:42.930Z,85.42
2018-04-14T03:02:11.069Z,85.50
2018-04-14T03:04:39.202Z,85.48
2018-04-14T03:07:07.338Z,85.44
2018-04-14T03:09:35.458Z,85.07
2018-04-14T03:12:03.579Z,84.90
2018-04-14T03:14:31.729Z,85.04
2018-04-14T03:16:59.867Z,85.27
2018-04-14T03:19:28.001Z,85.04
2018-04-14T03:21:56.318Z,85.03
2018-04-14T03:24:24.439Z,85.15
2018-04-14T03:26:52.598Z,84.98
2018-04-14T03:29:20.751Z,85.55
2018-04-14T03:31:48.891Z,85.33
2018-04-14T03:34:17.031Z,85.16
2018-04-14T03:36:45.199Z,85.06
2018-04-14T03:39:13.306Z,85.26
2018-04-14T03:41:41.458Z,84.92
2018-04-14T03:44:09.594Z,84.87
2018-04-14T03:46:37.708Z,84.93
2018-04-14T03:49:05.859Z,84.91
2018-04-14T03:51:34.158Z,84.89
2018-04-14T03:54:02.276Z,85.14
2018-04-14T03:56:30.420Z,85.62
2018-04-14T03:58:58.583Z,85.36
2018-04-14T04:01:26.718Z,85.36
2018-04-14T04:03:54.860Z,85.19
2018-04-14T04:06:23.009Z,85.30
2018-04-14T04:08:51.158Z,85.14
2018-04-14T04:11:19.300Z,85.12
2018-04-14T04:13:47.653Z,85.13
2018-04-14T04:16:16.897Z,84.30
2018-04-14T04:18:57.016Z,84.26
2018-04-14T04:21:36.767Z,83.41
2018-04-14T04:24:16.973Z,82.90
2018-04-14T04:26:45.146Z,82.48
2018-04-14T04:29:13.351Z,82.21
2018-04-14T04:31:41.701Z,81.58
2018-04-14T04:34:09.860Z,81.86
2018-04-14T04:36:37.992Z,81.62
2018-04-14T04:39:06.126Z,81.68
2018-04-14T04:41:34.263Z,82.33
2018-04-14T04:44:02.416Z,82.93
2018-04-14T04:46:30.574Z,83.50
2018-04-14T04:48:58.740Z,83.58
2018-04-14T04:51:26.850Z,83.12
2018-04-14T04:53:54.986Z,83.09
2018-04-14T04:56:23.110Z,83.07
2018-04-14T04:58:51.253Z,83.49
2018-04-14T05:01:19.407Z,83.39
2018-04-14T05:03:47.545Z,83.54
2018-04-14T05:06:15.677Z,83.16
2018-04-14T05:08:43.833Z,83.41
2018-04-14T05:11:11.965Z,83.60
2018-04-14T05:13:40.091Z,82.79
2018-04-14T05:16:08.250Z,82.91
2018-04-14T05:18:36.377Z,83.26
2018-04-14T05:21:04.492Z,83.14
2018-04-14T05:23:32.702Z,82.78
2018-04-14T05:26:00.852Z,82.57
2018-04-14T05:28:28.974Z,82.66
2018-04-14T05:30:57.141Z,79.87
2018-04-14T05:33:25.284Z,78.83
2018-04-14T05:35:53.411Z,78.72
2018-04-14T05:38:21.556Z,77.86
2018-04-14T05:40:49.690Z,78.46
2018-04-14T05:43:21.541Z,78.58
2018-04-14T05:45:49.704Z,77.86
2018-04-14T05:48:17.868Z,78.12
2018-04-14T05:50:45.981Z,77.96
2018-04-14T05:53:14.128Z,77.37
2018-04-14T05:55:42.258Z,77.08
2018-04-14T05:58:10.414Z,76.95
2018-04-14T06:00:38.570Z,77.05
2018-04-14T06:03:06.708Z,77.08
2018-04-14T06:05:34.855Z,77.02
2018-04-14T06:08:03.004Z,75.68
2018-04-14T06:10:31.131Z,74.93
2018-04-14T06:12:59.250Z,75.08
2018-04-14T06:15:27.396Z,74.29
2018-04-14T06:17:55.516Z,74.60
2018-04-14T06:20:23.653Z,73.81
2018-04-14T06:22:51.813Z,73.96
2018-04-14T06:25:19.958Z,73.43
2018-04-14T06:27:48.065Z,73.89
2018-04-14T06:30:16.202Z,73.22
2018-04-14T06:32:44.354Z,72.86
2018-04-14T06:35:12.532Z,73.79
2018-04-14T06:37:40.713Z,73.36
2018-04-14T06:40:08.865Z,73.61
2018-04-14T06:42:37.016Z,73.52
2018-04-14T06:45:05.155Z,73.41
2018-04-14T06:47:33.336Z,73.20
2018-04-14T06:50:01.721Z,72.55
2018-04-14T06:52:29.876Z,72.72
2018-04-14T06:54:58.015Z,72.05
2018-04-14T06:57:26.153Z,72.15
2018-04-14T06:59:54.448Z,72.18
2018-04-14T07:02:26.352Z,71.81
2018-04-14T07:04:54.487Z,72.02
2018-04-14T07:07:22.619Z,71.50
2018-04-14T07:09:50.776Z,71.67
2018-04-14T07:12:18.885Z,72.68
2018-04-14T07:14:47.041Z,72.67
2018-04-14T07:17:15.171Z,72.28
2018-04-14T07:19:43.298Z,72.93
2018-04-14T07:22:11.427Z,72.96
2018-04-14T07:24:39.647Z,72.52
2018-04-14T07:27:07.789Z,71.99
2018-04-14T07:29:35.923Z,71.82
2018-04-14T07:32:04.060Z,72.62
2018-04-14T07:34:32.195Z,72.05
2018-04-14T07:37:00.324Z,72.43
2018-04-14T07:39:28.451Z,72.57
2018-04-14T07:41:56.566Z,72.10
2018-04-14T07:44:24.711Z,71.09
2018-04-14T07:46:52.835Z,71.12
2018-04-14T07:49:20.973Z,71.42
2018-04-14T07:51:49.103Z,70.28
2018-04-14T07:54:17.251Z,70.82
2018-04-14T07:56:45.362Z,70.15
2018-04-14T07:59:13.524Z,69.96
2018-04-14T08:01:41.776Z,69.76
2018-04-14T08:04:09.994Z,70.86
2018-04-14T08:06:38.124Z,69.96
2018-04-14T08:09:10.088Z,69.85
2018-04-14T08:11:38.276Z,68.81
2018-04-14T08:14:09.833Z,69.72
2018-04-14T08:16:37.954Z,69.74
2018-04-14T08:19:06.091Z,69.41
2018-04-14T08:21:34.238Z,68.57
2018-04-14T08:24:02.370Z,68.20
2018-04-14T08:26:30.515Z,68.00
2018-04-14T08:28:58.669Z,67.36
2018-04-14T08:31:26.816Z,67.79
2018-04-14T08:33:54.959Z,65.96
2018-04-14T08:36:23.408Z,65.20
2018-04-14T08:38:52.467Z,66.50
2018-04-14T08:41:20.958Z,67.11
2018-04-14T08:43:49.100Z,67.01
2018-04-14T08:46:17.229Z,66.50
2018-04-14T08:48:45.388Z,66.18
2018-04-14T08:51:13.526Z,66.44
2018-04-14T08:53:41.659Z,66.23
2018-04-14T08:56:09.786Z,66.46
2018-04-14T08:58:37.943Z,66.83
2018-04-14T09:01:06.067Z,66.69
2018-04-14T09:03:34.216Z,66.86
2018-04-14T09:06:02.367Z,67.54
2018-04-14T09:08:30.499Z,67.27
2018-04-14T09:10:58.927Z,68.43
2018-04-14T09:13:27.068Z,69.30
2018-04-14T09:15:55.194Z,70.08
2018-04-14T09:18:23.330Z,69.84
2018-04-14T09:20:51.503Z,69.01
2018-04-14T09:23:19.638Z,68.37
2018-04-14T09:25:47.780Z,67.99
2018-04-14T09:28:15.921Z,69.13
2018-04-14T09:30:44.041Z,67.60
2018-04-14T09:33:12.193Z,67.51
2018-04-14T09:35:40.584Z,66.77
2018-04-14T09:38:10.631Z,66.71
2018-04-14T09:40:38.751Z,67.10
2018-04-14T09:43:06.932Z,67.09
2018-04-14T09:45:35.048Z,66.72
2018-04-14T09:48:03.180Z,66.59
2018-04-14T09:50:31.333Z,67.04
2018-04-14T09:52:59.478Z,67.34
2018-04-14T09:55:27.615Z,67.08
2018-04-14T09:57:55.776Z,67.16
2018-04-14T10:00:27.790Z,66.84
2018-04-14T10:03:00.819Z,66.93
2018-04-14T10:05:28.900Z,67.06
2018-04-14T10:07:57.909Z,66.58
2018-04-14T10:10:26.090Z,66.08
2018-04-14T10:12:54.214Z,65.68
2018-04-14T10:15:22.320Z,64.82
2018-04-14T10:17:50.516Z,65.33
2018-04-14T10:20:18.665Z,65.48
2018-04-14T10:22:46.794Z,65.75
2018-04-14T10:25:14.933Z,65.12
2018-04-14T10:27:43.066Z,64.60
2018-04-14T10:30:11.208Z,63.00
2018-04-14T10:32:39.349Z,62.37
2018-04-14T10:35:07.463Z,62.11
2018-04-14T10:37:35.625Z,61.31
2018-04-14T10:40:03.770Z,61.30
2018-04-14T10:42:31.914Z,61.31
2018-04-14T10:45:00.115Z,59.50
2018-04-14T10:47:28.246Z,59.97
2018-04-14T10:49:56.392Z,60.31
2018-04-14T10:52:24.511Z,60.27
2018-04-14T10:54:52.741Z,62.19
2018-04-14T10:57:20.884Z,61.21
2018-04-14T10:59:48.996Z,61.59
2018-04-14T11:02:17.139Z,63.45
2018-04-14T11:04:45.257Z,62.91
2018-04-14T11:07:13.387Z,62.65
2018-04-14T11:09:41.752Z,62.63
2018-04-14T11:12:09.901Z,63.19
2018-04-14T11:14:38.073Z,62.36
2018-04-14T11:17:06.357Z,61.57
2018-04-14T11:19:34.495Z,60.59
2018-04-14T11:22:02.638Z,60.91
2018-04-14T11:24:30.908Z,59.39
2018-04-14T11:26:59.055Z,58.59
2018-04-14T11:29:27.190Z,59.01
2018-04-14T11:31:55.350Z,57.86
2018-04-14T11:34:23.521Z,58.80
2018-04-14T11:36:51.646Z,59.14
2018-04-14T11:39:19.792Z,58.13
2018-04-14T11:41:47.942Z,58.14
2018-04-14T11:44:16.086Z,57.08
2018-04-14T11:46:44.246Z,56.92
2018-04-14T11:49:12.404Z,55.62
2018-04-14T11:51:40.511Z,56.05
2018-04-14T11:54:08.665Z,56.40
2018-04-14T11:56:36.821Z,56.88
2018-04-14T11:59:04.963Z,55.90
2018-04-14T12:01:33.117Z,56.95
2018-04-14T12:04:01.280Z,57.06
2018-04-14T12:06:29.428Z,54.94
2018-04-14T12:08:57.826Z,54.18
2018-04-14T12:11:26.048Z,54.92
2018-04-14T12:13:54.184Z,55.55
2018-04-14T12:16:22.360Z,54.22
2018-04-14T12:18:50.492Z,54.72
2018-04-14T12:21:18.637Z,54.37
2018-04-14T12:23:46.784Z,54.22
2018-04-14T12:26:14.914Z,53.25
2018-04-14T12:28:43.035Z,52.47
2018-04-14T12:31:11.198Z,53.28
2018-04-14T12:33:39.329Z,53.58
2018-04-14T12:36:07.473Z,53.72
2018-04-14T12:38:35.606Z,54.89
2018-04-14T12:41:03.764Z,55.60
2018-04-14T12:43:31.911Z,54.42
2018-04-14T12:46:00.050Z,54.66
2018-04-14T12:48:28.192Z,54.71
2018-04-14T12:50:56.327Z,53.27
2018-04-14T12:53:24.471Z,54.19
2018-04-14T12:55:52.611Z,53.38
2018-04-14T12:58:20.754Z,53.11
2018-04-14T13:00:49.101Z,52.95
2018-04-14T13:03:17.229Z,54.12
2018-04-14T13:05:45.363Z,54.02
2018-04-14T13:08:16.849Z,53.38
2018-04-14T13:10:45.014Z,54.09
2018-04-14T13:13:13.164Z,53.76
2018-04-14T13:15:41.271Z,54.68
2018-04-14T13:18:09.406Z,54.06
2018-04-14T13:20:37.528Z,53.85
2018-04-14T13:23:05.683Z,53.93
2018-04-14T13:25:33.844Z,53.84
2018-04-14T13:28:01.973Z,53.53
2018-04-14T13:30:30.111Z,53.70
2018-04-14T13:32:58.255Z,54.15
2018-04-14T13:35:26.382Z,53.52
2018-04-14T13:37:54.524Z,54.01
2018-04-14T13:40:22.671Z,54.56
2018-04-14T13:42:50.793Z,55.56
2018-04-14T13:45:18.939Z,56.23
2018-04-14T13:47:47.149Z,54.56
2018-04-14T13:50:15.280Z,54.44
2018-04-14T13:52:43.436Z,54.57
2018-04-14T13:55:11.599Z,52.98
2018-04-14T13:57:39.713Z,52.87
2018-04-14T14:00:07.989Z,53.86
2018-04-14T14:02:36.134Z,53.76
2018-04-14T14:05:04.260Z,54.35
2018-04-14T14:07:32.684Z,54.31
2018-04-14T14:10:00.824Z,53.81
2018-04-14T14:12:28.955Z,54.58
2018-04-14T14:15:02.397Z,53.51
2018-04-14T14:17:31.124Z,53.74
2018-04-14T14:19:59.360Z,53.27
2018-04-14T14:22:27.555Z,53.25
2018-04-14T14:24:55.767Z,52.41
2018-04-14T14:27:23.920Z,51.50
2018-04-14T14:29:52.041Z,52.91
2018-04-14T14:32:20.200Z,53.50
2018-04-14T14:34:48.325Z,56.37
2018-04-14T14:37:16.458Z,52.14
2018-04-14T14:39:44.588Z,52.64
2018-04-14T14:42:12.716Z,50.76
2018-04-14T14:44:40.853Z,50.72
2018-04-14T14:47:09.004Z,52.03
2018-04-14T14:49:37.139Z,52.56
2018-04-14T14:52:05.270Z,52.90
2018-04-14T14:54:33.394Z,52.19
2018-04-14T14:57:01.536Z,52.16
2018-04-14T14:59:32.837Z,52.92
2018-04-14T15:02:00.963Z,52.26
2018-04-14T15:04:29.127Z,52.71
2018-04-14T15:06:57.250Z,53.35
2018-04-14T15:09:25.384Z,53.63
2018-04-14T15:11:53.776Z,53.49
2018-04-14T15:14:21.914Z,53.00
2018-04-14T15:16:50.058Z,53.41
2018-04-14T15:19:18.205Z,53.44
2018-04-14T15:21:46.333Z,53.26
2018-04-14T15:24:14.477Z,52.87
2018-04-14T15:26:42.808Z,52.84
2018-04-14T15:29:10.930Z,53.32
2018-04-14T15:31:39.071Z,53.69
2018-04-14T15:34:07.217Z,53.65
2018-04-14T15:36:35.360Z,52.88
2018-04-14T15:39:03.485Z,53.05
2018-04-14T15:41:31.651Z,52.12
2018-04-14T15:43:59.783Z,51.84
2018-04-14T15:46:27.927Z,51.88
2018-04-14T15:48:56.080Z,52.43
2018-04-14T15:51:24.214Z,51.97
2018-04-14T15:53:52.375Z,51.94
2018-04-14T15:56:20.528Z,52.36
2018-04-14T15:58:48.683Z,52.88
2018-04-14T16:01:16.835Z,53.13
2018-04-14T16:03:45.056Z,52.38
2018-04-14T16:06:13.117Z,51.90
2018-04-14T16:08:41.244Z,52.92
2018-04-14T16:11:09.390Z,52.83
2018-04-14T16:13:37.510Z,52.56
2018-04-14T16:16:05.660Z,53.05
2018-04-14T16:18:33.793Z,54.01
2018-04-14T16:21:01.943Z,53.29
2018-04-14T16:23:30.116Z,52.75
2018-04-14T16:25:58.240Z,52.54
2018-04-14T16:28:26.404Z,52.79
2018-04-14T16:30:54.544Z,53.39
2018-04-14T16:33:22.681Z,52.78
2018-04-14T16:35:50.842Z,52.67
2018-04-14T16:38:18.992Z,52.49
2018-04-14T16:40:47.142Z,52.62
2018-04-14T16:43:15.254Z,52.46
2018-04-14T16:45:43.373Z,53.04
2018-04-14T16:48:11.539Z,52.49
2018-04-14T16:50:39.765Z,52.65
2018-04-14T16:53:07.907Z,54.22
2018-04-14T16:55:36.069Z,53.22
2018-04-14T16:58:04.275Z,53.98
2018-04-14T17:00:33.003Z,54.46
2018-04-14T17:03:01.699Z,53.62
2018-04-14T17:05:30.575Z,54.56
2018-04-14T17:07:59.827Z,54.70
2018-04-14T17:10:28.766Z,55.38
2018-04-14T17:12:56.999Z,55.98
2018-04-14T17:15:25.127Z,56.11
2018-04-14T17:17:53.341Z,56.22
2018-04-14T17:20:21.493Z,55.41
2018-04-14T17:22:49.615Z,55.19
2018-04-14T17:25:18.232Z,56.51
2018-04-14T17:27:46.380Z,54.76
2018-04-14T17:30:14.523Z,56.46
2018-04-14T17:32:42.676Z,56.31
2018-04-14T17:35:10.824Z,56.00
2018-04-14T17:37:38.962Z,56.27
2018-04-14T17:40:07.138Z,55.66
2018-04-14T17:42:35.265Z,55.98
2018-04-14T17:45:03.515Z,55.47
2018-04-14T17:47:31.680Z,55.83
2018-04-14T17:50:00.052Z,55.74
2018-04-14T17:52:28.186Z,56.56
2018-04-14T17:54:56.315Z,56.62
2018-04-14T17:57:24.426Z,56.63
2018-04-14T17:59:52.556Z,56.59
2018-04-14T18:02:20.707Z,56.66
2018-04-14T18:04:48.849Z,56.65
2018-04-14T18:07:17.254Z,56.75
2018-04-14T18:09:45.416Z,56.88
2018-04-14T18:12:13.585Z,57.69
2018-04-14T18:14:41.699Z,57.64
2018-04-14T18:17:09.860Z,58.75
2018-04-14T18:19:38.016Z,58.70
2018-04-14T18:22:06.146Z,58.86
2018-04-14T18:24:34.285Z,58.49
2018-04-14T18:27:02.419Z,58.94
2018-04-14T18:29:30.560Z,58.67
2018-04-14T18:31:58.712Z,59.30
2018-04-14T18:34:26.827Z,59.43
2018-04-14T18:36:54.935Z,59.85
2018-04-14T18:39:23.101Z,59.57
2018-04-14T18:41:51.242Z,60.18
2018-04-14T18:44:19.354Z,60.25
2018-04-14T18:46:47.487Z,60.36
2018-04-14T18:49:15.640Z,59.76
2018-04-14T18:51:43.775Z,60.55
2018-04-14T18:54:11.913Z,60.62
2018-04-14T18:56:40.066Z,60.81
2018-04-14T18:59:08.195Z,60.76
2018-04-14T19:01:36.354Z,60.41
2018-04-14T19:04:04.512Z,61.08
2018-04-14T19:06:32.658Z,61.29
2018-04-14T19:09:00.818Z,60.94
2018-04-14T19:11:28.971Z,60.84
2018-04-14T19:13:57.066Z,60.48
2018-04-14T19:16:25.209Z,61.42
2018-04-14T19:18:56.997Z,61.58
2018-04-14T19:21:28.847Z,60.75
2018-04-14T19:23:56.987Z,60.90
2018-04-14T19:26:25.121Z,62.27
2018-04-14T19:28:53.253Z,62.61
2018-04-14T19:31:21.419Z,61.30
2018-04-14T19:33:49.565Z,62.12
2018-04-14T19:36:17.686Z,61.61
2018-04-14T19:38:48.825Z,61.57
2018-04-14T19:41:16.953Z,60.64
2018-04-14T19:43:45.091Z,61.71
2018-04-14T19:46:13.223Z,60.86
2018-04-14T19:48:41.388Z,60.94
2018-04-14T19:51:09.815Z,61.84
2018-04-14T19:53:37.951Z,62.05
2018-04-14T19:56:06.086Z,61.75
2018-04-14T19:58:34.230Z,62.46
2018-04-14T20:01:02.348Z,62.56
2018-04-14T20:03:30.489Z,62.40
2018-04-14T20:05:58.623Z,62.69
2018-04-14T20:08:26.749Z,62.41
2018-04-14T20:10:55.333Z,62.56
2018-04-14T20:13:23.509Z,62.99
2018-04-14T20:15:51.616Z,62.64
2018-04-14T20:18:19.753Z,63.74
2018-04-14T20:20:47.947Z,62.83
2018-04-14T20:23:16.042Z,62.76
2018-04-14T20:25:44.244Z,62.96
2018-04-14T20:28:13.292Z,62.86
2018-04-14T20:30:41.431Z,62.87
2018-04-14T20:33:09.554Z,62.94
2018-04-14T20:35:37.706Z,63.24
2018-04-14T20:38:05.837Z,63.62
2018-04-14T20:40:33.955Z,63.63
2018-04-14T20:43:02.120Z,64.62
2018-04-14T20:45:30.248Z,63.49
2018-04-14T20:47:58.392Z,63.97
2018-04-14T20:50:26.533Z,63.70
2018-04-14T20:52:58.525Z,63.92
2018-04-14T20:55:26.765Z,64.17
2018-04-14T20:57:54.899Z,64.13
2018-04-14T21:00:23.020Z,63.71
2018-04-14T21:02:51.180Z,64.77
2018-04-14T21:05:19.324Z,64.60
2018-04-14T21:07:47.446Z,64.71
2018-04-14T21:10:15.559Z,64.78
2018-04-14T21:12:43.718Z,64.86
2018-04-14T21:15:11.895Z,64.32
2018-04-14T21:17:40.036Z,65.17
2018-04-14T21:20:08.155Z,65.63
2018-04-14T21:22:36.303Z,66.21
2018-04-14T21:25:04.428Z,65.72
2018-04-14T21:27:32.573Z,66.01
2018-04-14T21:30:00.718Z,65.74
2018-04-14T21:32:28.839Z,66.10
2018-04-14T21:34:56.970Z,66.32
2018-04-14T21:37:25.119Z,66.73
2018-04-14T21:39:53.236Z,66.45
2018-04-14T21:42:21.383Z,65.66
2018-04-14T21:44:49.505Z,66.37
2018-04-14T21:47:17.650Z,66.65
2018-04-14T21:49:49.403Z,66.68
2018-04-14T21:52:17.637Z,65.82
2018-04-14T21:54:45.797Z,66.64
2018-04-14T21:57:14.042Z,66.59
2018-04-14T21:59:42.226Z,66.33
2018-04-14T22:02:10.372Z,66.90
2018-04-14T22:04:38.575Z,66.93
2018-04-14T22:07:06.777Z,66.34
2018-04-14T22:09:34.888Z,66.88
2018-04-14T22:12:03.015Z,66.83
2018-04-14T22:14:33.102Z,66.64
2018-04-14T22:17:01.230Z,67.49
2018-04-14T22:19:29.366Z,67.55
2018-04-14T22:21:57.501Z,67.32
2018-04-14T22:24:25.630Z,67.38
2018-04-14T22:26:53.784Z,67.35
2018-04-14T22:29:23.903Z,67.37
2018-04-14T22:31:52.086Z,68.07
2018-04-14T22:34:20.236Z,67.68
2018-04-14T22:36:48.424Z,67.80
2018-04-14T22:39:16.607Z,67.75
2018-04-14T22:41:44.843Z,68.40
2018-04-14T22:44:12.997Z,68.18
2018-04-14T22:46:41.164Z,68.25
2018-04-14T22:49:09.354Z,67.99
2018-04-14T22:51:37.571Z,68.21
2018-04-14T22:54:05.739Z,68.00
2018-04-14T22:56:33.865Z,68.45
2018-04-14T22:59:02.011Z,68.56
2018-04-14T23:01:30.146Z,68.82
2018-04-14T23:03:58.281Z,68.20
2018-04-14T23:06:26.500Z,68.66
2018-04-14T23:08:54.621Z,69.05
2018-04-14T23:11:22.762Z,68.56
2018-04-14T23:13:50.907Z,68.20
2018-04-14T23:16:19.052Z,68.78
2018-04-14T23:18:47.276Z,68.45
2018-04-14T23:21:15.399Z,71.58
2018-04-14T23:23:43.528Z,72.67
2018-04-14T23:26:11.669Z,72.77
2018-04-14T23:28:39.794Z,72.58
2018-04-14T23:31:07.931Z,73.15
2018-04-14T23:33:36.075Z,74.97
2018-04-14T23:36:04.197Z,76.74
2018-04-14T23:38:32.312Z,78.32
2018-04-14T23:41:00.477Z,79.32
2018-04-14T23:43:28.602Z,79.77
2018-04-14T23:45:56.733Z,80.36
2018-04-14T23:48:24.855Z,80.83
2018-04-14T23:50:52.993Z,81.49
2018-04-14T23:53:24.988Z,81.74
2018-04-14T23:55:53.123Z,81.92
2018-04-14T23:58:21.256Z,82.11
